createdAt,value
2018-08-14T00:02:28.035Z,18.77
2018-08-14T00:04:56.120Z,19.43
2018-08-14T00:07:24.184Z,23.53
2018-08-14T00:09:52.336Z,23.77
2018-08-14T00:12:20.463Z,22.70
2018-08-14T00:14:48.761Z,23.33
2018-08-14T00:17:16.849Z,21.23
2018-08-14T00:19:44.950Z,24.13
2018-08-14T00:22:13.145Z,23.90
2018-08-14T00:24:41.322Z,22.77
2018-08-14T00:27:09.697Z,19.37
2018-08-14T00:29:37.760Z,24.53
2018-08-14T00:32:06.007Z,22.60
2018-08-14T00:34:37.642Z,20.83
2018-08-14T00:37:05.931Z,19.50
2018-08-14T00:39:34.024Z,23.03
2018-08-14T00:42:02.094Z,20.33
2018-08-14T00:44:30.186Z,20.40
2018-08-14T00:46:58.276Z,19.67
2018-08-14T00:49:26.352Z,20.00
2018-08-14T00:51:54.447Z,18.73
2018-08-14T00:54:22.510Z,19.57
2018-08-14T00:56:50.583Z,18.43
2018-08-14T00:59:18.655Z,19.27
2018-08-14T01:01:46.732Z,21.87
2018-08-14T01:04:14.852Z,21.90
2018-08-14T01:06:42.949Z,21.83
2018-08-14T01:09:11.028Z,18.30
2018-08-14T01:12:47.710Z,18.10
2018-08-14T01:15:17.217Z,21.90
2018-08-14T01:17:46.209Z,20.33
2018-08-14T01:20:15.185Z,19.00
2018-08-14T01:22:44.691Z,18.93
2018-08-14T01:25:12.797Z,19.43
2018-08-14T01:27:40.948Z,21.73
2018-08-14T01:30:21.809Z,21.57
2018-08-14T01:32:49.979Z,19.70
2018-08-14T01:35:18.346Z,20.30
2018-08-14T01:37:46.903Z,22.50
2018-08-14T01:40:15.008Z,21.43
2018-08-14T01:42:43.095Z,22.77
2018-08-14T01:45:12.688Z,21.20
2018-08-14T01:47:40.787Z,20.70
2018-08-14T01:50:11.031Z,24.77
2018-08-14T01:52:39.110Z,21.87
2018-08-14T01:55:07.528Z,23.47
2018-08-14T01:57:35.630Z,22.37
2018-08-14T02:00:04.656Z,19.87
2018-08-14T02:02:32.728Z,22.27
2018-08-14T02:05:00.791Z,21.80
2018-08-14T02:07:28.855Z,20.53
2018-08-14T02:09:56.947Z,19.97
2018-08-14T02:12:25.062Z,20.50
2018-08-14T02:14:53.123Z,21.20
2018-08-14T02:17:21.274Z,20.83
2018-08-14T02:19:49.358Z,22.83
2018-08-14T02:22:17.433Z,21.73
2018-08-14T02:24:45.537Z,24.20
2018-08-14T02:27:14.017Z,24.67
2018-08-14T02:29:42.115Z,23.63
2018-08-14T02:32:10.163Z,22.87
2018-08-14T02:34:38.234Z,27.17
2018-08-14T02:37:06.319Z,23.83
2018-08-14T02:39:34.400Z,23.17
2018-08-14T02:42:02.463Z,21.67
2018-08-14T02:44:30.544Z,21.07
2018-08-14T02:46:58.604Z,23.23
2018-08-14T02:49:26.715Z,23.63
2018-08-14T02:51:54.823Z,21.73
2018-08-14T02:54:22.993Z,22.03
2018-08-14T02:56:52.096Z,20.87
2018-08-14T02:59:20.261Z,26.10
2018-08-14T03:01:48.420Z,25.77
2018-08-14T03:04:16.511Z,24.87
2018-08-14T03:06:44.618Z,25.00
2018-08-14T03:09:12.683Z,24.10
2018-08-14T03:11:40.865Z,26.23
2018-08-14T03:14:09.797Z,23.43
2018-08-14T03:16:37.858Z,22.97
2018-08-14T03:19:06.296Z,22.80
2018-08-14T03:21:35.045Z,22.00
2018-08-14T03:24:03.105Z,23.97
2018-08-14T03:26:31.279Z,21.83
2018-08-14T03:28:59.323Z,23.33
2018-08-14T03:31:27.696Z,24.87
2018-08-14T03:33:55.918Z,25.97
2018-08-14T03:36:24.072Z,28.43
2018-08-14T03:38:52.186Z,29.47
2018-08-14T03:41:20.336Z,29.07
2018-08-14T03:43:48.449Z,35.27
2018-08-14T03:46:16.925Z,32.67
2018-08-14T03:48:45.003Z,37.40
2018-08-14T03:51:13.080Z,36.27
2018-08-14T03:53:41.149Z,35.43
2018-08-14T03:56:09.230Z,37.80
2018-08-14T03:58:37.331Z,36.63
2018-08-14T04:01:05.434Z,38.77
2018-08-14T04:03:33.615Z,37.97
2018-08-14T04:06:01.740Z,39.00
2018-08-14T04:08:29.801Z,43.10
2018-08-14T04:10:57.895Z,42.87
2018-08-14T04:13:26.250Z,43.00
2018-08-14T04:15:54.340Z,42.77
2018-08-14T04:18:22.407Z,43.80
2018-08-14T04:20:50.515Z,42.27
2018-08-14T04:23:18.551Z,44.30
2018-08-14T04:25:46.667Z,45.90
2018-08-14T04:28:14.735Z,47.53
2018-08-14T04:30:42.859Z,45.47
2018-08-14T04:33:11.028Z,44.50
2018-08-14T04:35:39.144Z,41.37
2018-08-14T04:38:07.544Z,39.33
2018-08-14T04:40:35.719Z,38.13
2018-08-14T04:43:03.824Z,42.40
2018-08-14T04:45:31.899Z,42.40
2018-08-14T04:48:00.043Z,43.97
2018-08-14T04:50:28.141Z,44.20
2018-08-14T04:52:56.468Z,43.80
2018-08-14T04:55:24.573Z,45.17
2018-08-14T04:57:52.688Z,43.40
2018-08-14T05:00:21.084Z,44.73
2018-08-14T05:02:49.196Z,46.13
2018-08-14T05:05:17.291Z,44.20
2018-08-14T05:07:45.380Z,46.60
2018-08-14T05:10:14.740Z,48.30
2018-08-14T05:12:42.837Z,43.40
2018-08-14T05:15:11.247Z,43.37
2018-08-14T05:17:39.624Z,32.03
2018-08-14T05:20:09.400Z,28.53
2018-08-14T05:22:37.529Z,24.90
2018-08-14T05:25:06.090Z,25.60
2018-08-14T05:27:34.193Z,26.90
2018-08-14T05:30:02.352Z,28.37
2018-08-14T05:32:30.450Z,28.03
2018-08-14T05:34:58.606Z,26.37
2018-08-14T05:37:26.693Z,31.43
2018-08-14T05:39:54.816Z,36.13
2018-08-14T05:42:23.300Z,38.57
2018-08-14T05:44:51.489Z,40.47
2018-08-14T05:47:19.598Z,44.10
2018-08-14T05:49:47.705Z,42.87
2018-08-14T05:52:15.824Z,43.77
2018-08-14T05:54:43.966Z,46.17
2018-08-14T05:57:12.028Z,44.50
2018-08-14T05:59:40.155Z,43.43
2018-08-14T06:02:08.265Z,41.90
2018-08-14T06:04:36.352Z,38.00
2018-08-14T06:07:04.503Z,34.00
2018-08-14T06:09:32.627Z,38.23
2018-08-14T06:12:00.753Z,45.33
2018-08-14T06:14:28.832Z,41.97
2018-08-14T06:16:56.981Z,42.83
2018-08-14T06:19:25.152Z,42.40
2018-08-14T06:21:53.243Z,42.10
2018-08-14T06:24:21.472Z,43.73
2018-08-14T06:26:49.775Z,42.00
2018-08-14T06:29:17.853Z,42.07
2018-08-14T06:31:45.984Z,43.40
2018-08-14T06:34:14.105Z,44.47
2018-08-14T06:36:42.181Z,43.37
2018-08-14T06:39:14.485Z,42.57
2018-08-14T06:41:44.235Z,39.90
2018-08-14T06:44:12.371Z,36.13
2018-08-14T06:46:40.448Z,36.93
2018-08-14T06:49:08.557Z,38.67
2018-08-14T06:51:36.655Z,40.77
2018-08-14T06:54:05.007Z,43.53
2018-08-14T06:56:33.117Z,39.97
2018-08-14T06:59:01.188Z,40.67
2018-08-14T07:01:29.284Z,38.83
2018-08-14T07:03:57.369Z,38.13
2018-08-14T07:06:25.423Z,37.47
2018-08-14T07:08:53.909Z,38.13
2018-08-14T07:11:21.979Z,37.97
2018-08-14T07:13:50.071Z,38.20
2018-08-14T07:16:18.161Z,33.50
2018-08-14T07:18:46.270Z,35.10
2018-08-14T07:21:14.496Z,36.63
2018-08-14T07:23:42.641Z,35.70
2018-08-14T07:26:10.754Z,33.47
2018-08-14T07:28:39.096Z,36.57
2018-08-14T07:31:07.167Z,33.30
2018-08-14T07:33:35.312Z,35.00
2018-08-14T07:36:03.435Z,34.83
2018-08-14T07:38:31.563Z,30.83
2018-08-14T07:40:59.692Z,30.85
2018-08-14T07:43:27.756Z,31.97
2018-08-14T07:45:56.147Z,28.38
2018-08-14T07:48:24.322Z,27.07
2018-08-14T07:50:52.472Z,25.60
2018-08-14T07:53:20.544Z,24.07
2018-08-14T07:55:48.640Z,23.20
2018-08-14T07:58:16.853Z,24.43
2018-08-14T08:00:44.965Z,22.60
2018-08-14T08:03:13.120Z,21.70
2018-08-14T08:05:41.186Z,21.15
2018-08-14T08:08:09.346Z,19.98
2018-08-14T08:10:37.480Z,16.55
2018-08-14T08:13:05.576Z,17.17
2018-08-14T08:15:33.682Z,15.60
2018-08-14T08:18:01.824Z,13.93
2018-08-14T08:20:33.446Z,12.93
2018-08-14T08:23:03.131Z,12.65
2018-08-14T08:25:32.327Z,13.68
2018-08-14T08:28:00.869Z,12.40
2018-08-14T08:30:29.145Z,12.47
2018-08-14T08:32:57.754Z,11.80
2018-08-14T08:35:26.707Z,11.70
2018-08-14T08:37:55.131Z,11.45
2018-08-14T08:40:23.415Z,10.60
2018-08-14T08:42:52.584Z,10.00
2018-08-14T08:45:21.122Z,9.15
2018-08-14T08:47:49.191Z,8.23
2018-08-14T08:50:17.280Z,7.37
2018-08-14T08:52:45.932Z,7.37
2018-08-14T08:55:16.254Z,6.00
2018-08-14T08:57:44.633Z,6.35
2018-08-14T09:00:14.567Z,6.67
2018-08-14T09:02:42.756Z,5.50
2018-08-14T09:05:12.971Z,5.28
2018-08-14T09:07:41.442Z,5.55
2018-08-14T09:10:10.884Z,5.60
2018-08-14T09:12:39.184Z,4.22
2018-08-14T09:15:08.122Z,4.05
2018-08-14T09:17:36.370Z,3.52
2018-08-14T09:20:05.561Z,4.40
2018-08-14T09:22:33.693Z,4.55
2018-08-14T09:25:01.796Z,3.90
2018-08-14T09:27:29.911Z,3.60
2018-08-14T09:29:58.037Z,4.20
2018-08-14T09:32:26.735Z,4.03
2018-08-14T09:34:55.127Z,4.35
2018-08-14T09:37:23.199Z,2.70
2018-08-14T09:39:51.359Z,2.87
2018-08-14T09:42:19.506Z,3.20
2018-08-14T09:44:47.859Z,3.42
2018-08-14T09:47:16.049Z,4.25
2018-08-14T09:49:44.140Z,3.60
2018-08-14T09:52:12.237Z,4.15
2018-08-14T09:54:40.328Z,3.40
2018-08-14T09:57:08.433Z,2.80
2018-08-14T09:59:36.532Z,2.80
2018-08-14T10:02:10.191Z,3.37
2018-08-14T10:04:43.548Z,3.83
2018-08-14T10:07:17.419Z,3.30
2018-08-14T10:09:46.754Z,3.00
2018-08-14T10:12:14.842Z,3.20
2018-08-14T10:14:43.214Z,3.10
2018-08-14T10:17:13.563Z,3.12
2018-08-14T10:19:41.699Z,3.50
2018-08-14T10:22:10.506Z,3.02
2018-08-14T10:24:38.653Z,2.92
2018-08-14T10:27:07.000Z,3.47
2018-08-14T10:29:35.152Z,3.05
2018-08-14T10:32:03.287Z,2.95
2018-08-14T10:34:31.365Z,3.17
2018-08-14T10:36:59.436Z,2.58
2018-08-14T10:39:27.742Z,3.10
2018-08-14T10:41:55.911Z,2.83
2018-08-14T10:44:24.052Z,2.83
2018-08-14T10:46:52.241Z,2.77
2018-08-14T10:49:20.614Z,3.35
2018-08-14T10:51:48.794Z,2.98
2018-08-14T10:54:16.968Z,2.58
2018-08-14T10:56:45.053Z,2.58
2018-08-14T10:59:13.335Z,2.70
2018-08-14T11:01:41.436Z,2.60
2018-08-14T11:04:09.710Z,2.50
2018-08-14T11:06:37.779Z,2.72
2018-08-14T11:09:06.941Z,2.72
2018-08-14T11:11:40.319Z,2.90
2018-08-14T11:14:08.616Z,2.47
2018-08-14T11:16:36.887Z,2.40
2018-08-14T11:19:05.083Z,2.40
2018-08-14T11:21:33.189Z,2.20
2018-08-14T11:24:01.507Z,2.35
2018-08-14T11:26:29.574Z,2.20
2018-08-14T11:28:58.068Z,2.10
2018-08-14T11:31:26.235Z,1.90
2018-08-14T11:33:54.516Z,1.92
2018-08-14T11:36:22.695Z,1.75
2018-08-14T11:38:50.924Z,1.90
2018-08-14T11:41:19.024Z,2.70
2018-08-14T11:43:47.485Z,2.40
2018-08-14T11:46:15.630Z,2.50
2018-08-14T11:48:44.544Z,2.92
2018-08-14T11:51:14.784Z,3.20
2018-08-14T11:53:43.715Z,3.33
2018-08-14T11:56:11.950Z,2.35
2018-08-14T11:58:40.323Z,2.20
2018-08-14T12:01:08.788Z,2.30
2018-08-14T12:03:37.160Z,2.22
2018-08-14T12:06:05.240Z,2.40
2018-08-14T12:08:33.323Z,2.33
2018-08-14T12:11:01.585Z,2.67
2018-08-14T12:13:29.625Z,2.58
2018-08-14T12:15:57.756Z,2.80
2018-08-14T12:18:25.880Z,3.12
2018-08-14T12:20:53.939Z,2.83
2018-08-14T12:23:22.033Z,2.77
2018-08-14T12:25:50.131Z,3.30
2018-08-14T12:28:18.247Z,3.22
2018-08-14T12:30:46.312Z,3.00
2018-08-14T12:33:14.470Z,3.00
2018-08-14T12:35:42.630Z,2.70
2018-08-14T12:38:10.732Z,2.72
2018-08-14T12:40:38.802Z,3.00
2018-08-14T12:43:07.223Z,2.95
2018-08-14T12:45:35.636Z,2.47
2018-08-14T12:48:04.015Z,2.83
2018-08-14T12:50:32.119Z,3.08
2018-08-14T12:53:00.677Z,2.40
2018-08-14T12:55:28.806Z,2.83
2018-08-14T12:57:57.071Z,2.37
2018-08-14T13:00:29.526Z,2.90
2018-08-14T13:02:58.788Z,2.08
2018-08-14T13:05:27.556Z,2.30
2018-08-14T13:07:55.975Z,2.22
2018-08-14T13:10:24.141Z,2.65
2018-08-14T13:12:52.277Z,2.85
2018-08-14T13:15:20.536Z,2.12
2018-08-14T13:17:59.364Z,2.42
2018-08-14T13:20:27.541Z,2.17
2018-08-14T13:22:55.588Z,2.22
2018-08-14T13:25:24.029Z,2.40
2018-08-14T13:27:52.116Z,2.70
2018-08-14T13:30:20.263Z,2.72
2018-08-14T13:32:48.384Z,2.20
2018-08-14T13:35:16.493Z,2.83
2018-08-14T13:37:44.571Z,5.60
2018-08-14T13:40:13.798Z,2.87
2018-08-14T13:42:41.863Z,2.22
2018-08-14T13:45:11.315Z,1.98
2018-08-14T13:47:39.710Z,1.85
2018-08-14T13:50:08.996Z,2.60
2018-08-14T13:52:37.408Z,2.60
2018-08-14T13:55:07.150Z,2.55
2018-08-14T13:57:35.225Z,2.55
2018-08-14T14:00:04.293Z,2.62
2018-08-14T14:02:32.368Z,2.60
2018-08-14T14:05:00.457Z,2.30
2018-08-14T14:07:28.539Z,2.00
2018-08-14T14:09:57.000Z,2.08
2018-08-14T14:12:25.156Z,2.42
2018-08-14T14:14:53.365Z,2.25
2018-08-14T14:17:21.531Z,2.77
2018-08-14T14:19:50.330Z,2.37
2018-08-14T14:22:19.618Z,2.95
2018-08-14T14:24:50.269Z,2.80
2018-08-14T14:27:18.323Z,2.72
2018-08-14T14:29:46.484Z,2.67
2018-08-14T14:32:15.127Z,3.35
2018-08-14T14:34:43.200Z,2.70
2018-08-14T14:37:11.356Z,3.10
2018-08-14T14:39:39.508Z,2.52
2018-08-14T14:42:08.257Z,2.55
2018-08-14T14:44:37.924Z,3.08
2018-08-14T14:47:06.472Z,3.05
2018-08-14T14:49:35.051Z,2.42
2018-08-14T14:52:03.174Z,2.33
2018-08-14T14:54:31.349Z,2.50
2018-08-14T14:56:59.432Z,2.80
2018-08-14T14:59:27.877Z,2.95
2018-08-14T15:01:55.977Z,2.80
2018-08-14T15:04:24.062Z,2.58
2018-08-14T15:06:52.191Z,2.52
2018-08-14T15:09:20.470Z,2.55
2018-08-14T15:11:48.572Z,2.62
2018-08-14T15:14:16.662Z,2.72
2018-08-14T15:16:44.752Z,2.75
2018-08-14T15:19:17.191Z,2.67
2018-08-14T15:21:45.597Z,2.52
2018-08-14T15:24:13.661Z,2.75
2018-08-14T15:26:42.881Z,3.02
2018-08-14T15:29:16.810Z,2.33
2018-08-14T15:31:48.577Z,2.72
2018-08-14T15:34:21.716Z,2.62
2018-08-14T15:36:51.823Z,2.10
2018-08-14T15:39:20.675Z,2.22
2018-08-14T15:41:48.795Z,2.80
2018-08-14T15:44:16.942Z,2.60
2018-08-14T15:46:45.053Z,2.75
2018-08-14T15:49:13.435Z,2.72
2018-08-14T15:51:42.144Z,2.30
2018-08-14T15:54:11.311Z,2.83
2018-08-14T15:56:39.921Z,2.40
2018-08-14T15:59:08.161Z,2.58
2018-08-14T16:01:36.461Z,2.92
2018-08-14T16:04:05.123Z,2.42
2018-08-14T16:06:33.212Z,2.47
2018-08-14T16:09:01.360Z,3.15
2018-08-14T16:11:29.638Z,3.05
2018-08-14T16:13:57.800Z,2.92
2018-08-14T16:16:26.002Z,2.58
2018-08-14T16:18:55.905Z,2.80
2018-08-14T16:21:24.081Z,2.60
2018-08-14T16:23:52.188Z,2.75
2018-08-14T16:26:20.436Z,2.30
2018-08-14T16:28:48.637Z,2.92
2018-08-14T16:31:16.777Z,3.15
2018-08-14T16:33:44.854Z,2.20
2018-08-14T16:36:13.636Z,2.35
2018-08-14T16:38:41.837Z,2.65
2018-08-14T16:41:09.911Z,2.58
2018-08-14T16:43:39.452Z,3.52
2018-08-14T16:46:07.650Z,2.77
2018-08-14T16:48:35.757Z,3.08
2018-08-14T16:51:04.024Z,2.98
2018-08-14T16:53:32.072Z,5.40
2018-08-14T16:56:00.604Z,2.83
2018-08-14T16:58:28.754Z,3.00
2018-08-14T17:00:56.964Z,2.98
2018-08-14T17:03:25.312Z,2.47
2018-08-14T17:05:57.200Z,3.02
2018-08-14T17:08:26.980Z,2.75
2018-08-14T17:10:55.232Z,2.50
2018-08-14T17:13:23.505Z,2.37
2018-08-14T17:15:51.821Z,2.85
2018-08-14T17:18:20.384Z,2.30
2018-08-14T17:20:47.539Z,2.08
2018-08-14T17:23:15.655Z,2.75
2018-08-14T17:25:43.810Z,2.20
2018-08-14T17:28:12.714Z,3.10
2018-08-14T17:30:41.975Z,2.55
2018-08-14T17:33:10.124Z,3.33
2018-08-14T17:35:38.200Z,2.77
2018-08-14T17:38:06.391Z,2.47
2018-08-14T17:40:34.527Z,2.65
2018-08-14T17:43:02.659Z,2.77
2018-08-14T17:45:31.542Z,3.40
2018-08-14T17:48:01.477Z,3.08
2018-08-14T17:50:30.006Z,2.52
2018-08-14T17:52:58.200Z,2.37
2018-08-14T17:56:29.741Z,2.30
2018-08-14T17:58:58.034Z,2.85
2018-08-14T18:01:26.652Z,2.20
2018-08-14T18:03:54.769Z,2.35
2018-08-14T18:06:22.885Z,2.30
2018-08-14T18:08:50.973Z,1.90
2018-08-14T18:11:19.077Z,2.22
2018-08-14T18:13:47.184Z,2.08
2018-08-14T18:16:15.882Z,2.35
2018-08-14T18:18:44.000Z,2.55
2018-08-14T18:21:12.233Z,2.50
2018-08-14T18:23:40.378Z,1.95
2018-08-14T18:26:09.166Z,2.50
2018-08-14T18:28:37.238Z,2.55
2018-08-14T18:31:05.638Z,2.42
2018-08-14T18:33:34.646Z,2.65
2018-08-14T18:36:02.719Z,2.42
2018-08-14T18:38:31.568Z,2.20
2018-08-14T18:41:00.616Z,2.10
2018-08-14T18:43:28.755Z,2.20
2018-08-14T18:45:56.801Z,2.52
2018-08-14T18:48:25.140Z,2.22
2018-08-14T18:50:53.377Z,1.90
2018-08-14T18:53:21.697Z,2.65
2018-08-14T18:55:49.919Z,2.33
2018-08-14T18:58:18.123Z,3.05
2018-08-14T19:00:46.538Z,2.35
2018-08-14T19:03:14.708Z,2.33
2018-08-14T19:05:42.791Z,2.33
2018-08-14T19:08:11.425Z,3.20
2018-08-14T19:10:42.569Z,2.87
2018-08-14T19:13:10.868Z,2.40
2018-08-14T19:15:40.039Z,2.40
2018-08-14T19:18:10.265Z,2.62
2018-08-14T19:20:38.390Z,2.33
2018-08-14T19:23:06.650Z,1.95
2018-08-14T19:25:35.685Z,2.62
2018-08-14T19:28:03.821Z,2.33
2018-08-14T19:30:31.930Z,2.12
2018-08-14T19:33:00.122Z,1.80
2018-08-14T19:35:28.223Z,2.30
2018-08-14T19:37:57.735Z,2.05
2018-08-14T19:40:26.475Z,2.17
2018-08-14T19:42:54.899Z,1.92
2018-08-14T19:45:26.700Z,1.90
2018-08-14T19:47:55.227Z,2.60
2018-08-14T19:50:23.705Z,2.30
2018-08-14T19:52:51.828Z,2.30
2018-08-14T19:55:21.225Z,2.08
2018-08-14T19:57:51.070Z,1.75
2018-08-14T20:00:24.980Z,2.25
2018-08-14T20:02:55.210Z,2.40
2018-08-14T20:05:23.678Z,2.12
2018-08-14T20:07:52.266Z,2.47
2018-08-14T20:10:20.769Z,2.87
2018-08-14T20:12:49.207Z,2.20
2018-08-14T20:15:22.313Z,2.17
2018-08-14T20:17:50.598Z,2.50
2018-08-14T20:20:18.883Z,2.00
2018-08-14T20:22:47.188Z,2.00
2018-08-14T20:25:15.501Z,2.25
2018-08-14T20:27:43.679Z,2.27
2018-08-14T20:30:13.703Z,2.25
2018-08-14T20:32:42.452Z,2.40
2018-08-14T20:35:14.323Z,2.10
2018-08-14T20:37:43.983Z,2.17
2018-08-14T20:40:14.341Z,2.77
2018-08-14T20:42:42.447Z,1.90
2018-08-14T20:45:11.903Z,2.30
2018-08-14T20:47:40.188Z,2.25
2018-08-14T20:50:12.596Z,2.98
2018-08-14T20:52:40.675Z,1.98
2018-08-14T20:55:10.110Z,2.62
2018-08-14T20:57:39.388Z,2.35
2018-08-14T21:00:07.536Z,2.98
2018-08-14T21:02:38.118Z,2.55
2018-08-14T21:05:06.328Z,2.30
2018-08-14T21:07:34.407Z,2.53
2018-08-14T21:10:02.494Z,2.72
2018-08-14T21:12:39.271Z,2.20
2018-08-14T21:15:09.098Z,2.10
2018-08-14T21:17:37.255Z,2.07
2018-08-14T21:20:06.602Z,2.55
2018-08-14T21:22:34.744Z,2.00
2018-08-14T21:25:03.096Z,2.10
2018-08-14T21:27:31.185Z,1.87
2018-08-14T21:29:59.239Z,2.50
2018-08-14T21:32:27.569Z,2.22
2018-08-14T21:34:55.683Z,2.23
2018-08-14T21:37:23.792Z,2.37
2018-08-14T21:39:52.580Z,1.85
2018-08-14T21:42:20.898Z,1.87
2018-08-14T21:44:49.015Z,2.10
2018-08-14T21:47:17.187Z,1.87
2018-08-14T21:49:45.253Z,2.00
2018-08-14T21:52:13.393Z,2.00
2018-08-14T21:54:41.527Z,2.40
2018-08-14T21:57:09.599Z,2.55
2018-08-14T21:59:37.685Z,2.60
2018-08-14T22:02:05.776Z,2.37
2018-08-14T22:04:33.855Z,2.30
2018-08-14T22:07:01.900Z,2.00
2018-08-14T22:09:30.036Z,2.10
2018-08-14T22:11:58.163Z,2.27
2018-08-14T22:14:26.279Z,2.33
2018-08-14T22:16:54.694Z,2.53
2018-08-14T22:19:22.779Z,3.00
2018-08-14T22:21:50.920Z,2.77
2018-08-14T22:24:19.047Z,2.33
2018-08-14T22:26:47.186Z,2.53
2018-08-14T22:29:15.749Z,2.30
2018-08-14T22:31:43.810Z,2.02
2018-08-14T22:34:11.906Z,2.10
2018-08-14T22:36:39.963Z,2.07
2018-08-14T22:39:08.945Z,2.27
2018-08-14T22:41:37.395Z,1.90
2018-08-14T22:44:05.461Z,2.40
2018-08-14T22:46:34.065Z,2.00
2018-08-14T22:49:02.147Z,2.10
2018-08-14T22:51:30.265Z,2.13
2018-08-14T22:53:58.325Z,2.20
2018-08-14T22:56:26.366Z,2.43
2018-08-14T22:58:54.479Z,2.00
2018-08-14T23:01:22.631Z,2.40
2018-08-14T23:03:52.004Z,1.60
2018-08-14T23:06:20.101Z,1.80
2018-08-14T23:08:48.539Z,2.03
2018-08-14T23:11:16.635Z,2.57
2018-08-14T23:13:44.737Z,2.45
2018-08-14T23:16:12.807Z,2.35
2018-08-14T23:18:41.864Z,2.03
2018-08-14T23:21:09.941Z,2.50
2018-08-14T23:23:38.070Z,1.90
2018-08-14T23:26:06.218Z,1.73
2018-08-14T23:28:34.237Z,1.70
2018-08-14T23:31:02.760Z,1.80
2018-08-14T23:33:30.848Z,1.87
2018-08-14T23:35:58.900Z,2.00
2018-08-14T23:38:26.990Z,2.10
2018-08-14T23:40:55.129Z,2.00
2018-08-14T23:43:23.239Z,1.90
2018-08-14T23:45:51.625Z,2.20
2018-08-14T23:48:19.783Z,2.10
2018-08-14T23:50:48.051Z,2.00
2018-08-14T23:53:16.111Z,2.10
2018-08-14T23:55:44.219Z,2.00
2018-08-14T23:58:12.289Z,1.90
